| time (UTC) | temp C | wind direction | speed KPH | gust KPH | rain 1hr cm | rain 24hr cm | rain mn cm | humidity % | barometer mb |
| 20260906220006 | 27 | 111 | 12.9 | 17.7 | 0.00 | 0.00 | 0.00 | 32 | 1021.5 |
| 20260906215502 | 26 | 125 | 11.3 | 16.1 | 0.00 | 0.00 | 0.00 | 32 | 1021.6 |
| 20260906215002 | 27 | 136 | 8.0 | 14.5 | 0.00 | 0.00 | 0.00 | 27 | 1021.7 |
| 20260906214002 | 27 | 123 | 9.7 | 17.7 | 0.00 | 0.00 | 0.00 | 27 | 1021.9 |
| 20260906213502 | 26 | 105 | 9.7 | 17.7 | 0.00 | 0.00 | 0.00 | 27 | 1021.9 |
| 20260906211502 | 27 | 108 | 3.2 | 16.1 | 0.00 | 0.00 | 0.00 | 28 | 1022.1 |
| 20260906211002 | 27 | 144 | 4.8 | 16.1 | 0.00 | 0.00 | 0.00 | 27 | 1022.2 |
| 20260906210502 | 27 | 110 | 8.0 | 16.1 | 0.00 | 0.00 | 0.00 | 27 | 1022.3 |
| 20260906210005 | 27 | 105 | 8.0 | 14.5 | 0.00 | 0.00 | 0.00 | 27 | 1022.5 |
| 20260906205502 | 26 | 128 | 6.4 | 14.5 | 0.00 | 0.00 | 0.00 | 27 | 1022.5 |
| 20260906205003 | 26 | 116 | 3.2 | 9.7 | 0.00 | 0.00 | 0.00 | 27 | 1022.4 |
| 20260906204502 | 26 | 357 | 3.2 | 6.4 | 0.00 | 0.00 | 0.00 | 27 | 1022.6 |
| 20260906204002 | 26 | 329 | 1.6 | 8.0 | 0.00 | 0.00 | 0.00 | 27 | 1022.6 |
| 20260906203502 | 26 | 248 | 1.6 | 8.0 | 0.00 | 0.00 | 0.00 | 27 | 1022.7 |
| 20260906203002 | 26 | 213 | 1.6 | 3.2 | 0.00 | 0.00 | 0.00 | 27 | 1022.8 |
| 20260906202501 | 26 | 229 | 3.2 | 9.7 | 0.00 | 0.00 | 0.00 | 27 | 1022.8 |
| 20260906202002 | 26 | 227 | 3.2 | 12.9 | 0.00 | 0.00 | 0.00 | 27 | 1022.8 |
| 20260906201501 | 26 | 103 | 6.4 | 14.5 | 0.00 | 0.00 | 0.00 | 28 | 1022.8 |
| 20260906201002 | 26 | 11 | 12.9 | 27.4 | 0.00 | 0.00 | 0.00 | 27 | 1022.6 |
| 20260906200501 | 26 | 89 | 11.3 | 27.4 | 0.00 | 0.00 | 0.00 | 27 | 1022.8 |
| 20260906200005 | 26 | 137 | 9.7 | 17.7 | 0.00 | 0.00 | 0.00 | 27 | 1022.9 |
| 20260906195502 | 26 | 131 | 11.3 | 20.9 | 0.00 | 0.00 | 0.00 | 28 | 1022.8 |
| 20260906195002 | 26 | 156 | 11.3 | 20.9 | 0.00 | 0.00 | 0.00 | 27 | 1022.7 |
| 20260906194502 | 27 | 131 | 9.7 | 19.3 | 0.00 | 0.00 | 0.00 | 27 | 1022.7 |
| 20260906194002 | 27 | 127 | 11.3 | 20.9 | 0.00 | 0.00 | 0.00 | 28 | 1022.8 |
| 20260906193502 | 27 | 142 | 14.5 | 25.7 | 0.00 | 0.00 | 0.00 | 27 | 1022.8 |
| 20260906192501 | 27 | 163 | 12.9 | 22.5 | 0.00 | 0.00 | 0.00 | 27 | 1023.2 |
| 20260906191502 | 27 | 185 | 9.7 | 24.1 | 0.00 | 0.00 | 0.00 | 27 | 1023.4 |
| 20260906190502 | 26 | 154 | 9.7 | 14.5 | 0.00 | 0.00 | 0.00 | 27 | 1023.4 |
| 20260906190005 | 27 | 136 | 6.4 | 14.5 | 0.00 | 0.00 | 0.00 | 26 | 1023.5 |
| 20260906184501 | 27 | 231 | 8.0 | 20.9 | 0.00 | 0.00 | 0.00 | 27 | 1023.8 |
| 20260906183502 | 27 | 137 | 8.0 | 12.9 | 0.00 | 0.00 | 0.00 | 27 | 1024.2 |
| 20260906182502 | 27 | 214 | 4.8 | 16.1 | 0.00 | 0.00 | 0.00 | 27 | 1024.3 |
| 20260906182002 | 26 | 219 | 6.4 | 17.7 | 0.00 | 0.00 | 0.00 | 28 | 1024.4 |
| 20260906181502 | 26 | 126 | 8.0 | 17.7 | 0.00 | 0.00 | 0.00 | 28 | 1024.5 |
| 20260906181002 | 26 | 125 | 4.8 | 14.5 | 0.00 | 0.00 | 0.00 | 28 | 1024.6 |
| 20260906180502 | 26 | 92 | 6.4 | 14.5 | 0.00 | 0.00 | 0.00 | 28 | 1024.9 |
| 20260906180005 | 26 | 189 | 8.0 | 16.1 | 0.00 | 0.00 | 0.00 | 28 | 1024.9 |
| 20260906175502 | 26 | 159 | 8.0 | 19.3 | 0.00 | 0.00 | 0.00 | 28 | 1025.0 |
| 20260906175001 | 26 | 231 | 11.3 | 22.5 | 0.00 | 0.00 | 0.00 | 28 | 1025.1 |
| 20260906174501 | 26 | 233 | 9.7 | 22.5 | 0.00 | 0.00 | 0.00 | 28 | 1025.1 |
| 20260906174002 | 26 | 132 | 8.0 | 14.5 | 0.00 | 0.00 | 0.00 | 28 | 1025.2 |
| 20260906173501 | 26 | 200 | 4.8 | 14.5 | 0.00 | 0.00 | 0.00 | 28 | 1025.2 |
| 20260906173002 | 26 | 273 | 3.2 | 14.5 | 0.00 | 0.00 | 0.00 | 28 | 1025.2 |
| 20260906172501 | 26 | 160 | 4.8 | 11.3 | 0.00 | 0.00 | 0.00 | 28 | 1025.2 |
| 20260906172002 | 25 | 304 | 6.4 | 14.5 | 0.00 | 0.00 | 0.00 | 29 | 1025.3 |
| 20260906171502 | 25 | 316 | 11.3 | 20.9 | 0.00 | 0.00 | 0.00 | 29 | 1025.3 |
| 20260906171002 | 25 | 277 | 8.0 | 20.9 | 0.00 | 0.00 | 0.00 | 29 | 1025.3 |
| 20260906170502 | 25 | 122 | 4.8 | 14.5 | 0.00 | 0.00 | 0.00 | 30 | 1025.4 |
| 20260906170004 | 25 | 91 | 4.8 | 9.7 | 0.00 | 0.00 | 0.00 | 30 | 1025.4 |
| 20260906165502 | 25 | 345 | 4.8 | 8.0 | 0.00 | 0.00 | 0.00 | 31 | 1025.5 |
| 20260906164501 | 24 | 110 | 6.4 | 11.3 | 0.00 | 0.00 | 0.00 | 32 | 1025.6 |
| 20260906164001 | 24 | 101 | 6.4 | 11.3 | 0.00 | 0.00 | 0.00 | 32 | 1025.7 |
| 20260906163502 | 24 | 95 | 4.8 | 14.5 | 0.00 | 0.00 | 0.00 | 33 | 1025.7 |
| 20260906163002 | 24 | 106 | 4.8 | 16.1 | 0.00 | 0.00 | 0.00 | 33 | 1025.7 |
| 20260906162002 | 23 | 136 | 4.8 | 11.3 | 0.00 | 0.00 | 0.00 | 34 | 1025.8 |
| 20260906161501 | 23 | 98 | 3.2 | 11.3 | 0.00 | 0.00 | 0.00 | 33 | 1025.8 |
| 20260906161001 | 23 | 157 | 3.2 | 8.0 | 0.00 | 0.00 | 0.00 | 32 | 1025.8 |
| 20260906160501 | 23 | 136 | 4.8 | 8.0 | 0.00 | 0.00 | 0.00 | 33 | 1025.9 |
| 20260906160004 | 23 | 117 | 3.2 | 8.0 | 0.00 | 0.00 | 0.00 | 33 | 1025.8 |
| 20260906155502 | 23 | 229 | 1.6 | 8.0 | 0.00 | 0.00 | 0.00 | 34 | 1025.9 |
| 20260906155002 | 23 | 146 | 1.6 | 8.0 | 0.00 | 0.00 | 0.00 | 34 | 1025.9 |
| 20260906154501 | 23 | 183 | 1.6 | 4.8 | 0.00 | 0.00 | 0.00 | 35 | 1025.8 |
| 20260906153502 | 22 | 165 | 1.6 | 6.4 | 0.00 | 0.00 | 0.00 | 39 | 1025.9 |
| 20260906153001 | 21 | 129 | 3.2 | 8.0 | 0.00 | 0.00 | 0.00 | 39 | 1025.9 |
| 20260906152502 | 21 | 136 | 3.2 | 8.0 | 0.00 | 0.00 | 0.00 | 40 | 1025.8 |
| 20260906152002 | 21 | 89 | 1.6 | 6.4 | 0.00 | 0.00 | 0.00 | 41 | 1025.9 |
| 20260906151001 | 20 | 148 | 3.2 | 6.4 | 0.00 | 0.00 | 0.00 | 41 | 1025.9 |
| 20260906150501 | 20 | 116 | 4.8 | 6.4 | 0.00 | 0.00 | 0.00 | 42 | 1025.9 |
| 20260906150004 | 20 | 95 | 3.2 | 6.4 | 0.00 | 0.00 | 0.00 | 43 | 1026.0 |
| 20260906145502 | 19 | 107 | 3.2 | 6.4 | 0.00 | 0.00 | 0.00 | 45 | 1026.1 |
| 20260906145001 | 19 | 104 | 1.6 | 6.4 | 0.00 | 0.00 | 0.00 | 44 | 1026.1 |
| 20260906144501 | 19 | 155 | 0.0 | 1.6 | 0.00 | 0.00 | 0.00 | 43 | 1026.0 |
| 20260906144002 | 18 | 284 | 0.0 | 1.6 | 0.00 | 0.00 | 0.00 | 45 | 1025.9 |
| 20260906143501 | 18 | 283 | 0.0 | 1.6 | 0.00 | 0.00 | 0.00 | 46 | 1025.9 |
| 20260906143001 | 18 | 283 | 0.0 | 0.0 | 0.00 | 0.00 | 0.00 | 47 | 1025.9 |
| 20260906142002 | 16 | 284 | 1.6 | 3.2 | 0.00 | 0.00 | 0.00 | 51 | 1025.9 |
| 20260906141002 | 15 | 322 | 0.0 | 0.0 | 0.00 | 0.00 | 0.00 | 54 | 1025.8 |
| 20260906140502 | 15 | 305 | 0.0 | 0.0 | 0.00 | 0.00 | 0.00 | 55 | 1025.9 |
| 20260906140004 | 15 | 203 | 0.0 | 1.6 | 0.00 | 0.00 | 0.00 | 56 | 1025.9 |
| 20260906135502 | 15 | 203 | 1.6 | 3.2 | 0.00 | 0.00 | 0.00 | 57 | 1025.7 |
| 20260906135001 | 15 | 203 | 1.6 | 4.8 | 0.00 | 0.00 | 0.00 | 58 | 1025.6 |
| 20260906134502 | 15 | 173 | 1.6 | 6.4 | 0.00 | 0.00 | 0.00 | 57 | 1025.8 |
| 20260906134001 | 15 | 286 | 3.2 | 6.4 | 0.00 | 0.00 | 0.00 | 58 | 1025.8 |
| 20260906133502 | 14 | 298 | 1.6 | 4.8 | 0.00 | 0.00 | 0.00 | 57 | 1025.8 |
| 20260906132502 | 13 | 291 | 0.0 | 0.0 | 0.00 | 0.00 | 0.00 | 59 | 1025.5 |
| 20260906132002 | 13 | 291 | 0.0 | 0.0 | 0.00 | 0.00 | 0.00 | 61 | 1025.7 |
| 20260906131001 | 12 | 275 | 0.0 | 0.0 | 0.00 | 0.00 | 0.00 | 63 | 1025.5 |
| 20260906130501 | 12 | 275 | 0.0 | 0.0 | 0.00 | 0.00 | 0.00 | 62 | 1025.4 |
| 20260906130004 | 12 | 275 | 0.0 | 0.0 | 0.00 | 0.00 | 0.00 | 63 | 1025.5 |
| 20260906125000 | 11 | 275 | 1.6 | 3.2 | 0.00 | 0.00 | 0.00 | 67 | 1025.5 |
| 20260906124000 | 11 | 312 | 3.2 | 6.4 | 0.00 | 0.00 | 0.00 | 67 | 1025.4 |
| 20260906123501 | 11 | 326 | 4.8 | 6.4 | 0.00 | 0.00 | 0.00 | 66 | 1025.4 |
| 20260906123001 | 11 | 326 | 4.8 | 6.4 | 0.00 | 0.00 | 0.00 | 66 | 1025.5 |
| 20260906122001 | 10 | 13 | 1.6 | 4.8 | 0.00 | 0.00 | 0.00 | 69 | 1025.2 |
| 20260906121000 | 11 | 290 | 0.0 | 0.0 | 0.00 | 0.00 | 0.00 | 67 | 1025.3 |
| 20260906120501 | 11 | 291 | 0.0 | 0.0 | 0.00 | 0.00 | 0.00 | 68 | 1025.4 |
| 20260906120004 | 10 | 290 | 0.0 | 0.0 | 0.00 | 0.00 | 0.00 | 69 | 1025.3 |
| 20260906115500 | 10 | 290 | 0.0 | 0.0 | 0.00 | 0.00 | 0.00 | 69 | 1025.4 |
| 20260906115000 | 10 | 291 | 0.0 | 0.0 | 0.00 | 0.00 | 0.00 | 69 | 1025.3 |
| 20260906114001 | 10 | 290 | 0.0 | 3.2 | 0.00 | 0.00 | 0.00 | 69 | 1025.4 |
| 20260906113500 | 11 | 290 | 1.6 | 4.8 | 0.00 | 0.00 | 0.00 | 67 | 1025.5 |
| 20260906113000 | 12 | 290 | 3.2 | 8.0 | 0.00 | 0.00 | 0.00 | 63 | 1025.4 |
| 20260906112000 | 11 | 105 | 3.2 | 6.4 | 0.00 | 0.00 | 0.00 | 69 | 1025.4 |
| 20260906111501 | 11 | 103 | 1.6 | 6.4 | 0.00 | 0.00 | 0.00 | 68 | 1025.4 |
| 20260906111001 | 10 | 118 | 0.0 | 3.2 | 0.00 | 0.00 | 0.00 | 69 | 1025.4 |
| 20260906110003 | 11 | 110 | 1.6 | 6.4 | 0.00 | 0.00 | 0.00 | 68 | 1025.5 |
| 20260906105501 | 11 | 110 | 3.2 | 8.0 | 0.00 | 0.00 | 0.00 | 68 | 1025.6 |
| 20260906105000 | 11 | 107 | 4.8 | 8.0 | 0.00 | 0.00 | 0.00 | 66 | 1025.6 |
| 20260906104000 | 11 | 316 | 1.6 | 6.4 | 0.00 | 0.00 | 0.00 | 66 | 1025.4 |
| 20260906103501 | 11 | 316 | 1.6 | 3.2 | 0.00 | 0.00 | 0.00 | 65 | 1025.5 |
| 20260906103000 | 12 | 316 | 1.6 | 4.8 | 0.00 | 0.00 | 0.00 | 65 | 1025.4 |
| 20260906102500 | 11 | 316 | 1.6 | 4.8 | 0.00 | 0.00 | 0.00 | 68 | 1025.4 |
| 20260906102000 | 11 | 114 | 0.0 | 3.2 | 0.00 | 0.00 | 0.00 | 68 | 1025.4 |
| 20260906101501 | 11 | 114 | 1.6 | 4.8 | 0.00 | 0.00 | 0.00 | 70 | 1025.5 |
| 20260906101001 | 10 | 114 | 3.2 | 6.4 | 0.00 | 0.00 | 0.00 | 71 | 1025.4 |
| 20260906100501 | 10 | 114 | 4.8 | 6.4 | 0.00 | 0.00 | 0.00 | 72 | 1025.4 |
| 20260906100004 | 10 | 110 | 6.4 | 8.0 | 0.00 | 0.00 | 0.00 | 72 | 1025.5 |
| 20260906095501 | 10 | 108 | 6.4 | 8.0 | 0.00 | 0.00 | 0.00 | 72 | 1025.5 |
| 20260906095001 | 10 | 108 | 4.8 | 8.0 | 0.00 | 0.00 | 0.00 | 71 | 1025.4 |
| 20260906094501 | 10 | 110 | 3.2 | 6.4 | 0.00 | 0.00 | 0.00 | 69 | 1025.2 |
| 20260906094000 | 10 | 145 | 1.6 | 3.2 | 0.00 | 0.00 | 0.00 | 68 | 1025.2 |
| 20260906093500 | 10 | 145 | 1.6 | 3.2 | 0.00 | 0.00 | 0.00 | 68 | 1025.3 |
| 20260906093001 | 11 | 145 | 3.2 | 4.8 | 0.00 | 0.00 | 0.00 | 68 | 1025.2 |
| 20260906092500 | 11 | 145 | 3.2 | 4.8 | 0.00 | 0.00 | 0.00 | 68 | 1025.2 |
| 20260906092001 | 11 | 216 | 3.2 | 4.8 | 0.00 | 0.00 | 0.00 | 68 | 1025.3 |
| 20260906091501 | 10 | 216 | 3.2 | 4.8 | 0.00 | 0.00 | 0.00 | 71 | 1025.2 |
| 20260906091000 | 10 | 167 | 3.2 | 3.2 | 0.00 | 0.00 | 0.00 | 73 | 1025.2 |
| 20260906090003 | 10 | 141 | 3.2 | 4.8 | 0.00 | 0.00 | 0.00 | 66 | 1025.2 |
| 20260906085001 | 12 | 212 | 4.8 | 8.0 | 0.00 | 0.00 | 0.00 | 61 | 1025.2 |
| 20260906084501 | 12 | 275 | 6.4 | 8.0 | 0.00 | 0.00 | 0.00 | 63 | 1025.1 |
| 20260906083501 | 11 | 296 | 6.4 | 8.0 | 0.00 | 0.00 | 0.00 | 68 | 1025.2 |
| 20260906083001 | 11 | 290 | 4.8 | 8.0 | 0.00 | 0.00 | 0.00 | 70 | 1025.3 |
| 20260906082501 | 10 | 278 | 3.2 | 4.8 | 0.00 | 0.00 | 0.00 | 72 | 1025.3 |
| 20260906082000 | 10 | 291 | 1.6 | 3.2 | 0.00 | 0.00 | 0.00 | 73 | 1025.4 |
| 20260906081501 | 10 | 291 | 3.2 | 4.8 | 0.00 | 0.00 | 0.00 | 74 | 1025.4 |
| 20260906081001 | 10 | 291 | 4.8 | 4.8 | 0.00 | 0.00 | 0.00 | 74 | 1025.4 |
| 20260906080500 | 10 | 291 | 3.2 | 4.8 | 0.00 | 0.00 | 0.00 | 74 | 1025.4 |
| 20260906080004 | 10 | 291 | 1.6 | 4.8 | 0.00 | 0.00 | 0.00 | 75 | 1025.5 |
| 20260906075500 | 10 | 291 | 3.2 | 3.2 | 0.00 | 0.00 | 0.00 | 75 | 1025.5 |
| 20260906075000 | 10 | 291 | 3.2 | 4.8 | 0.00 | 0.00 | 0.00 | 76 | 1025.5 |
| 20260906074500 | 9 | 291 | 4.8 | 6.4 | 0.00 | 0.00 | 0.00 | 76 | 1025.4 |
| 20260906074001 | 9 | 297 | 4.8 | 6.4 | 0.00 | 0.00 | 0.00 | 75 | 1025.4 |
| 20260906073501 | 9 | 297 | 4.8 | 6.4 | 0.00 | 0.00 | 0.00 | 74 | 1025.5 |
| 20260906072500 | 10 | 322 | 6.4 | 8.0 | 0.00 | 0.00 | 0.00 | 72 | 1025.6 |
| 20260906072001 | 10 | 321 | 6.4 | 11.3 | 0.00 | 0.00 | 0.00 | 72 | 1025.8 |
| 20260906071500 | 10 | 328 | 6.4 | 11.3 | 0.00 | 0.00 | 0.00 | 72 | 1025.8 |
| 20260906071001 | 10 | 301 | 4.8 | 8.0 | 0.00 | 0.00 | 0.00 | 71 | 1025.7 |
| 20260906070501 | 10 | 298 | 6.4 | 8.0 | 0.00 | 0.00 | 0.00 | 70 | 1025.8 |
| 20260906070005 | 11 | 290 | 6.4 | 8.0 | 0.00 | 0.00 | 0.00 | 68 | 1025.6 |
| 20260906065501 | 11 | 293 | 4.8 | 8.0 | 0.00 | 0.00 | 0.00 | 69 | 1025.4 |
| 20260906064502 | 11 | 301 | 3.2 | 6.4 | 0.00 | 0.00 | 0.00 | 66 | 1025.4 |
| 20260906064001 | 11 | 132 | 6.4 | 9.7 | 0.00 | 0.00 | 0.00 | 69 | 1025.4 |
| 20260906063501 | 11 | 120 | 8.0 | 9.7 | 0.00 | 0.00 | 0.00 | 70 | 1025.4 |
| 20260906063002 | 11 | 110 | 8.0 | 11.3 | 0.00 | 0.00 | 0.00 | 70 | 1025.3 |
| 20260906062502 | 11 | 121 | 8.0 | 11.3 | 0.00 | 0.00 | 0.00 | 71 | 1025.3 |
| 20260906062002 | 11 | 114 | 8.0 | 11.3 | 0.00 | 0.00 | 0.00 | 70 | 1025.3 |
| 20260906061502 | 11 | 112 | 9.7 | 16.1 | 0.00 | 0.00 | 0.00 | 71 | 1025.4 |
| 20260906060502 | 11 | 104 | 8.0 | 19.3 | 0.00 | 0.00 | 0.00 | 70 | 1025.4 |
| 20260906060005 | 11 | 111 | 4.8 | 17.7 | 0.00 | 0.00 | 0.00 | 69 | 1025.4 |
| 20260906055502 | 12 | 124 | 1.6 | 3.2 | 0.00 | 0.00 | 0.00 | 64 | 1025.2 |
| 20260906054502 | 13 | 129 | 1.6 | 4.8 | 0.00 | 0.00 | 0.00 | 59 | 1025.1 |
| 20260906054002 | 13 | 281 | 1.6 | 4.8 | 0.00 | 0.00 | 0.00 | 59 | 1025.1 |
| 20260906053502 | 13 | 281 | 3.2 | 4.8 | 0.00 | 0.00 | 0.00 | 58 | 1025.2 |
| 20260906053001 | 13 | 271 | 1.6 | 4.8 | 0.00 | 0.00 | 0.00 | 59 | 1025.2 |
| 20260906052502 | 13 | 196 | 0.0 | 1.6 | 0.00 | 0.00 | 0.00 | 60 | 1025.3 |
| 20260906052001 | 13 | 196 | 1.6 | 1.6 | 0.00 | 0.00 | 0.00 | 61 | 1025.3 |
| 20260906051502 | 13 | 196 | 1.6 | 6.4 | 0.00 | 0.00 | 0.00 | 59 | 1025.3 |
| 20260906051002 | 13 | 174 | 3.2 | 6.4 | 0.00 | 0.00 | 0.00 | 59 | 1025.3 |
| 20260906050502 | 13 | 168 | 3.2 | 4.8 | 0.00 | 0.00 | 0.00 | 60 | 1025.3 |
| 20260906050004 | 13 | 176 | 3.2 | 4.8 | 0.00 | 0.00 | 0.00 | 60 | 1025.4 |
| 20260906045502 | 12 | 94 | 0.0 | 3.2 | 0.00 | 0.00 | 0.00 | 61 | 1025.4 |
| 20260906045001 | 12 | 94 | 0.0 | 1.6 | 0.00 | 0.00 | 0.00 | 60 | 1025.4 |
| 20260906044502 | 12 | 94 | 0.0 | 1.6 | 0.00 | 0.00 | 0.00 | 60 | 1025.3 |
| 20260906044001 | 13 | 94 | 1.6 | 6.4 | 0.00 | 0.00 | 0.00 | 59 | 1025.3 |
| 20260906043502 | 13 | 94 | 3.2 | 8.0 | 0.00 | 0.00 | 0.00 | 57 | 1025.4 |
| 20260906043002 | 15 | 238 | 4.8 | 6.4 | 0.00 | 0.00 | 0.00 | 55 | 1025.5 |
| 20260906042503 | 15 | 247 | 6.4 | 8.0 | 0.00 | 0.00 | 0.00 | 56 | 1025.3 |
| 20260906041002 | 15 | 247 | 6.4 | 9.7 | 0.00 | 0.00 | 0.00 | 55 | 1025.2 |
| 20260906040501 | 15 | 247 | 6.4 | 9.7 | 0.00 | 0.00 | 0.00 | 54 | 1025.4 |
| 20260906035502 | 16 | 259 | 1.6 | 4.8 | 0.00 | 0.00 | 0.00 | 53 | 1025.4 |
| 20260906035001 | 16 | 133 | 3.2 | 4.8 | 0.00 | 0.00 | 0.00 | 53 | 1025.4 |
| 20260906034502 | 16 | 133 | 1.6 | 3.2 | 0.00 | 0.00 | 0.00 | 52 | 1025.4 |
| 20260906034001 | 16 | 133 | 0.0 | 3.2 | 0.00 | 0.00 | 0.00 | 53 | 1025.2 |
| 20260906033501 | 16 | 158 | 1.6 | 3.2 | 0.00 | 0.00 | 0.00 | 53 | 1025.3 |
| 20260906033001 | 16 | 157 | 1.6 | 4.8 | 0.00 | 0.00 | 0.00 | 53 | 1025.4 |
| 20260906032502 | 17 | 158 | 1.6 | 3.2 | 0.00 | 0.00 | 0.00 | 51 | 1025.4 |
| 20260906032001 | 17 | 297 | 1.6 | 1.6 | 0.00 | 0.00 | 0.00 | 52 | 1025.4 |
| 20260906031501 | 17 | 297 | 1.6 | 1.6 | 0.00 | 0.00 | 0.00 | 52 | 1025.3 |
| 20260906031001 | 17 | 297 | 1.6 | 1.6 | 0.00 | 0.00 | 0.00 | 52 | 1025.3 |
| 20260906030502 | 17 | 297 | 0.0 | 1.6 | 0.00 | 0.00 | 0.00 | 52 | 1025.3 |
| 20260906030004 | 16 | 297 | 0.0 | 1.6 | 0.00 | 0.00 | 0.00 | 53 | 1025.2 |
| 20260906025002 | 16 | 297 | 3.2 | 4.8 | 0.00 | 0.00 | 0.00 | 51 | 1025.1 |
| 20260906024501 | 17 | 275 | 0.0 | 3.2 | 0.00 | 0.00 | 0.00 | 50 | 1025.0 |
| 20260906024002 | 17 | 219 | 0.0 | 1.6 | 0.00 | 0.00 | 0.00 | 50 | 1025.0 |
| 20260906023502 | 18 | 219 | 0.0 | 1.6 | 0.00 | 0.00 | 0.00 | 49 | 1025.0 |
| 20260906022501 | 18 | 219 | 1.6 | 6.4 | 0.00 | 0.00 | 0.00 | 48 | 1024.8 |
| 20260906022001 | 18 | 190 | 3.2 | 4.8 | 0.00 | 0.00 | 0.00 | 48 | 1024.7 |
| 20260906021501 | 18 | 235 | 3.2 | 6.4 | 0.00 | 0.00 | 0.00 | 48 | 1024.8 |
| 20260906020501 | 18 | 231 | 4.8 | 6.4 | 0.00 | 0.00 | 0.00 | 48 | 1024.7 |
| 20260906020004 | 18 | 218 | 4.8 | 8.0 | 0.00 | 0.00 | 0.00 | 48 | 1024.7 |
| 20260906015501 | 18 | 248 | 6.4 | 8.0 | 0.00 | 0.00 | 0.00 | 48 | 1024.7 |
| 20260906015002 | 18 | 240 | 6.4 | 8.0 | 0.00 | 0.00 | 0.00 | 48 | 1024.9 |
| 20260906014501 | 19 | 264 | 3.2 | 8.0 | 0.00 | 0.00 | 0.00 | 47 | 1024.9 |
| 20260906014002 | 19 | 264 | 3.2 | 4.8 | 0.00 | 0.00 | 0.00 | 47 | 1025.0 |
| 20260906013502 | 20 | 266 | 1.6 | 4.8 | 0.00 | 0.00 | 0.00 | 47 | 1025.0 |
| 20260906013001 | 20 | 240 | 3.2 | 4.8 | 0.00 | 0.00 | 0.00 | 47 | 1025.0 |
| 20260906012502 | 20 | 227 | 3.2 | 6.4 | 0.00 | 0.00 | 0.00 | 47 | 1025.0 |
| 20260906012002 | 20 | 225 | 4.8 | 6.4 | 0.00 | 0.00 | 0.00 | 46 | 1025.1 |
| 20260906011502 | 20 | 233 | 4.8 | 11.3 | 0.00 | 0.00 | 0.00 | 45 | 1025.0 |
| 20260906010502 | 20 | 201 | 4.8 | 8.0 | 0.00 | 0.00 | 0.00 | 46 | 1025.1 |
| 20260906010005 | 20 | 182 | 8.0 | 14.5 | 0.00 | 0.00 | 0.00 | 46 | 1025.2 |
| 20260906005502 | 21 | 180 | 11.3 | 19.3 | 0.00 | 0.00 | 0.00 | 45 | 1025.0 |
| 20260906005002 | 21 | 166 | 12.9 | 19.3 | 0.00 | 0.00 | 0.00 | 44 | 1025.2 |
| 20260906004501 | 21 | 163 | 11.3 | 19.3 | 0.00 | 0.00 | 0.00 | 44 | 1025.2 |
| 20260906004002 | 21 | 162 | 9.7 | 14.5 | 0.00 | 0.00 | 0.00 | 43 | 1025.1 |
| 20260906003502 | 22 | 184 | 11.3 | 14.5 | 0.00 | 0.00 | 0.00 | 42 | 1024.9 |
| 20260906003002 | 22 | 165 | 12.9 | 20.9 | 0.00 | 0.00 | 0.00 | 41 | 1025.0 |
| 20260906002502 | 22 | 174 | 12.9 | 20.9 | 0.00 | 0.00 | 0.00 | 40 | 1024.9 |
| 20260906002001 | 22 | 157 | 11.3 | 17.7 | 0.00 | 0.00 | 0.00 | 40 | 1024.9 |
| 20260906001501 | 22 | 171 | 11.3 | 17.7 | 0.00 | 0.00 | 0.00 | 42 | 1024.9 |
| 20260906000501 | 23 | 159 | 9.7 | 16.1 | 0.00 | 0.00 | 0.00 | 40 | 1024.8 |
| 20260906000004 | 23 | 164 | 9.7 | 14.5 | 0.00 | 0.00 | 0.00 | 39 | 1024.7 |
| 20260905235501 | 23 | 147 | 9.7 | 14.5 | 0.00 | 0.00 | 0.00 | 38 | 1024.7 |
| 20260905235003 | 23 | 139 | 12.9 | 17.7 | 0.00 | 0.00 | 0.00 | 38 | 1024.7 |
| 20260905234502 | 23 | 142 | 12.9 | 17.7 | 0.00 | 0.00 | 0.00 | 36 | 1024.7 |
| 20260905234001 | 23 | 120 | 12.9 | 17.7 | 0.00 | 0.00 | 0.00 | 37 | 1024.8 |
| 20260905233502 | 23 | 108 | 11.3 | 17.7 | 0.00 | 0.00 | 0.00 | 36 | 1024.7 |
| 20260905233001 | 23 | 115 | 11.3 | 17.7 | 0.00 | 0.00 | 0.00 | 36 | 1024.7 |
| 20260905232501 | 23 | 117 | 12.9 | 17.7 | 0.00 | 0.00 | 0.00 | 35 | 1024.6 |
| 20260905232002 | 23 | 103 | 14.5 | 20.9 | 0.00 | 0.00 | 0.00 | 35 | 1024.5 |
| 20260905231501 | 23 | 134 | 16.1 | 20.9 | 0.00 | 0.00 | 0.00 | 35 | 1024.5 |
| 20260905231001 | 24 | 123 | 17.7 | 25.7 | 0.00 | 0.00 | 0.00 | 35 | 1024.5 |
| 20260905230501 | 24 | 122 | 19.3 | 25.7 | 0.00 | 0.00 | 0.00 | 34 | 1024.4 |
| 20260905225001 | 25 | 115 | 14.5 | 22.5 | 0.00 | 0.00 | 0.00 | 33 | 1024.2 |
| 20260905224500 | 25 | 98 | 16.1 | 25.7 | 0.00 | 0.00 | 0.00 | 34 | 1024.1 |
| 20260905224000 | 25 | 96 | 16.1 | 25.7 | 0.00 | 0.00 | 0.00 | 33 | 1024.0 |
| 20260905223500 | 25 | 113 | 17.7 | 25.7 | 0.00 | 0.00 | 0.00 | 33 | 1024.1 |
| 20260905223001 | 24 | 120 | 16.1 | 25.7 | 0.00 | 0.00 | 0.00 | 35 | 1024.2 |
| 20260905222001 | 24 | 91 | 12.9 | 20.9 | 0.00 | 0.00 | 0.00 | 34 | 1024.3 |
| 20260905221501 | 24 | 68 | 16.1 | 24.1 | 0.00 | 0.00 | 0.00 | 34 | 1024.2 |
| 20260905221000 | 25 | 84 | 17.7 | 27.4 | 0.00 | 0.00 | 0.00 | 35 | 1024.2 |